This is the latest recevied weather packets stored in our database for station/object KN6ZYR. If no packets are shown the sender has not sent any weather packets the latest 10 day(s).
| Time | Temp. | Humidity | Pressure | Rain* | Wind** | Luminosity | Snow |
|---|---|---|---|---|---|---|---|
| 1777397071 | 15° C | 34% | 1023.3 hPa | 0 mm | - | 637 W/m² | - |
| 1777396768 | 15° C | 34% | 1023.1 hPa | 0 mm | - | 624 W/m² | - |
| 1777396465 | 14.44° C | 35% | 1023.3 hPa | 0 mm | - | 611 W/m² | - |
| 1777396162 | 15° C | 35% | 1023.2 hPa | 0 mm | - | 598 W/m² | - |
| 1777395857 | 15° C | 34% | 1023.2 hPa | 0 mm | - | 586 W/m² | - |
| 1777395553 | 14.44° C | 34% | 1023.4 hPa | 0 mm | - | 573 W/m² | - |
| 1777395250 | 15.56° C | 33% | 1023.2 hPa | 0 mm | - | 559 W/m² | - |
| 1777394948 | 15° C | 36% | 1023.3 hPa | 0 mm | - | 545 W/m² | - |
| 1777394644 | 15° C | 35% | 1023.3 hPa | 0 mm | - | 532 W/m² | - |
| 1777394340 | 14.44° C | 35% | 1023.2 hPa | 0 mm | - | 517 W/m² | - |
| 1777394036 | 14.44° C | 35% | 1023.4 hPa | 0 mm | - | 504 W/m² | - |
| 1777393731 | 13.89° C | 36% | 1023.3 hPa | 0 mm | - | 489 W/m² | - |
| 1777393426 | 13.89° C | 36% | 1023.1 hPa | 0 mm | - | 476 W/m² | - |
| 1777393123 | 13.89° C | 35% | 1023.2 hPa | 0 mm | - | 458 W/m² | - |
| 1777392819 | 13.33° C | 36% | 1023.2 hPa | 0 mm | - | 444 W/m² | - |
| 1777392514 | 13.89° C | 35% | 1023.2 hPa | 0 mm | - | 431 W/m² | - |
| 1777392211 | 13.89° C | 37% | 1023.3 hPa | 0 mm | - | 418 W/m² | - |
| 1777391906 | 13.33° C | 37% | 1023.1 hPa | 0 mm | - | 401 W/m² | - |
| 1777391606 | 12.78° C | 37% | 1023.2 hPa | 0 mm | - | 387 W/m² | - |
| 1777391303 | 13.33° C | 38% | 1023.2 hPa | 0 mm | - | 374 W/m² | - |
| 1777391000 | 13.33° C | 40% | 1023.3 hPa | 0 mm | - | 359 W/m² | - |
| 1777390695 | 12.78° C | 43% | 1023.2 hPa | 0 mm | - | 345 W/m² | - |
| 1777390393 | 12.78° C | 44% | 1023.4 hPa | 0 mm | - | 330 W/m² | - |
| 1777390088 | 11.67° C | 48% | 1023.2 hPa | 0 mm | - | 316 W/m² | - |
| 1777389785 | 11.11° C | 49% | 1023.3 hPa | 0 mm | - | 301 W/m² | - |
* Rain latest hour (hover to see other rain measurements)
** Current wind speed in m/s (hover to see current wind gust speed)